SBOSBO MUC / EDDM
Speedbird OnlineSpeedbird Online MUC / EDDM

Munich Airport
08:44 10.5°C

Location Munich, Germany
Latitude: 48.353802
Longitude: 11.7861
Web Airport Website | Wikipedia
Altitude 453 Meter / 1487 Feet
Distance 904 KM / 562 Miles
from London.
Time Zone UTC +2 hours (Europe/Berlin)
Codes IATA: MUC
ICAO: EDDM
Currency £1 equals EUR 1.15
Runways
RunwayLength (m)Surface
08L4000Concrete
08R4000Concrete
26L4000Concrete
26R4000Concrete
Radio
TypeDescriptionFrequency
ACCRADAR123.9
ARRARR120.775
ATISATIS123.13
CLDCLNC DEL121.725
DIRDIRECTOR118.825
GNDGND119.4
INFOINFO120.65
RDRLCL RADAR131.225
RMPApron 2121.7
RMPApron 1121.775
RMPAron 3121.925
TWRTWR118.7
Live ATC
METAR EDDM 060620Z AUTO VRB01KT CAVOK 10/08 Q1029 NOSIG
TAF TAF EDDM 060500Z 0606/0712 24003KT 9999 FEW030 BECMG 0609/0611 32005KT BECMG 0615/0617 05002KT BECMG 0622/0624 1500 BCFG BECMG 0700/0702 0500 FG BECMG 0702/0704 VV002 TEMPO 0704/0708 0300 FG BKN001 BECMG 0708/0709 3000 BR BECMG 0709/0710 9000 BKN006 BECMG 0710/0712 BKN012
Weather As Of 06 Oct 2022 08:44
Description Clear sky
Wind 2 km/h from North (0°)
Cloud Cover 0%
Precipitation Rain: none, Snow: none
Sunrise 07:18
Sunset 18:42
Lounges Airport Lounge World , Terminal 1
Europa Lounge , Terminal 1
Air France KLM Lounge, Terminal 1
Rotations During the last 90 days there were
233 flights from LHR
231 flights to LHR


© 2017-2022 Speedbird Online